createdAt,value
2019-04-29T00:02:06.366Z,46.18
2019-04-29T00:04:35.752Z,46.10
2019-04-29T00:07:05.268Z,46.10
2019-04-29T00:09:34.418Z,46.15
2019-04-29T00:12:03.734Z,46.28
2019-04-29T00:14:34.203Z,46.51
2019-04-29T00:17:21.091Z,46.72
2019-04-29T00:20:00.928Z,46.80
2019-04-29T00:22:30.132Z,47.02
2019-04-29T00:24:59.377Z,46.94
2019-04-29T00:27:28.526Z,46.97
2019-04-29T00:29:57.755Z,47.07
2019-04-29T00:32:27.102Z,47.10
2019-04-29T00:34:56.369Z,47.10
2019-04-29T00:37:39.056Z,47.15
2019-04-29T00:40:09.861Z,47.10
2019-04-29T00:42:40.727Z,47.14
2019-04-29T00:45:10.092Z,47.10
2019-04-29T00:47:39.307Z,46.98
2019-04-29T00:50:08.481Z,46.91
2019-04-29T00:52:37.794Z,46.67
2019-04-29T00:55:17.322Z,46.53
2019-04-29T00:57:46.526Z,46.71
2019-04-29T01:00:17.433Z,46.94
2019-04-29T01:02:46.617Z,46.95
2019-04-29T01:05:15.887Z,46.84
2019-04-29T01:07:45.109Z,46.78
2019-04-29T01:10:14.643Z,46.78
2019-04-29T01:12:43.895Z,46.67
2019-04-29T01:15:13.347Z,46.66
2019-04-29T01:17:42.559Z,46.54
2019-04-29T01:20:11.903Z,46.49
2019-04-29T01:22:42.246Z,46.64
2019-04-29T01:25:11.458Z,46.71
2019-04-29T01:27:48.289Z,46.58
2019-04-29T01:30:41.746Z,46.34
2019-04-29T01:33:11.008Z,46.35
2019-04-29T01:35:40.282Z,46.68
2019-04-29T01:38:09.545Z,46.80
2019-04-29T01:40:40.345Z,46.89
2019-04-29T01:43:09.627Z,47.01
2019-04-29T01:45:38.886Z,47.11
2019-04-29T01:48:08.164Z,46.96
2019-04-29T01:50:37.440Z,46.73
2019-04-29T01:53:06.625Z,46.68
2019-04-29T01:55:35.880Z,46.73
2019-04-29T01:58:05.188Z,46.69
2019-04-29T02:00:34.393Z,46.66
2019-04-29T02:03:03.727Z,46.65
2019-04-29T02:05:32.975Z,46.65
2019-04-29T02:08:02.128Z,46.60
2019-04-29T02:10:33.015Z,46.67
2019-04-29T02:13:02.230Z,46.74
2019-04-29T02:15:31.536Z,46.76
2019-04-29T02:18:00.693Z,46.88
2019-04-29T02:20:29.848Z,46.96
2019-04-29T02:23:03.702Z,46.85
2019-04-29T02:25:43.280Z,46.82
2019-04-29T02:28:12.646Z,46.80
2019-04-29T02:30:44.164Z,46.84
2019-04-29T02:33:13.315Z,46.87
2019-04-29T02:35:42.510Z,46.86
2019-04-29T02:38:28.243Z,47.09
2019-04-29T02:40:59.188Z,47.25
2019-04-29T02:43:30.143Z,47.49
2019-04-29T02:45:59.351Z,47.42
2019-04-29T02:48:34.024Z,47.49
2019-04-29T02:50:59.651Z,47.58
2019-04-29T02:53:28.865Z,47.66
2019-04-29T02:55:59.875Z,47.73
2019-04-29T02:58:33.919Z,47.64
2019-04-29T03:01:16.610Z,47.56
2019-04-29T03:03:47.667Z,47.55
2019-04-29T03:06:16.794Z,47.49
2019-04-29T03:08:46.116Z,47.38
2019-04-29T03:11:16.945Z,47.23
2019-04-29T03:13:46.199Z,47.10
2019-04-29T03:16:15.501Z,46.88
2019-04-29T03:18:49.099Z,46.87
2019-04-29T03:21:19.981Z,46.85
2019-04-29T03:23:49.966Z,46.87
2019-04-29T03:26:19.209Z,46.76
2019-04-29T03:28:48.372Z,46.89
2019-04-29T03:31:17.598Z,46.67
2019-04-29T03:33:46.743Z,46.42
2019-04-29T03:36:15.956Z,46.35
2019-04-29T03:38:45.207Z,46.42
2019-04-29T03:41:14.435Z,46.46
2019-04-29T03:43:43.622Z,46.33
2019-04-29T03:46:12.782Z,46.31
2019-04-29T03:48:42.027Z,46.22
2019-04-29T03:51:11.408Z,46.04
2019-04-29T03:53:41.032Z,45.78
2019-04-29T03:56:10.581Z,45.99
2019-04-29T03:58:40.158Z,46.29
2019-04-29T04:01:11.329Z,46.60
2019-04-29T04:03:42.563Z,46.65
2019-04-29T04:06:19.388Z,46.72
2019-04-29T04:09:05.652Z,46.90
2019-04-29T04:11:24.160Z,47.21
2019-04-29T04:13:53.473Z,47.61
2019-04-29T04:16:30.619Z,47.58
2019-04-29T04:19:07.167Z,47.65
2019-04-29T04:21:36.729Z,47.99
2019-04-29T04:24:06.220Z,47.78
2019-04-29T04:26:35.627Z,47.69
2019-04-29T04:29:05.225Z,47.56
2019-04-29T04:31:34.855Z,47.35
2019-04-29T04:34:04.457Z,47.34
2019-04-29T04:36:33.783Z,47.30
2019-04-29T04:39:03.282Z,47.23
2019-04-29T04:41:33.148Z,47.18
2019-04-29T04:44:02.774Z,47.01
2019-04-29T04:46:32.327Z,47.16
2019-04-29T04:49:02.344Z,47.20
2019-04-29T04:51:31.828Z,47.11
2019-04-29T04:54:01.339Z,47.08
2019-04-29T04:56:30.829Z,47.15
2019-04-29T04:59:00.404Z,47.22
2019-04-29T05:01:29.716Z,47.23
2019-04-29T05:03:59.332Z,47.13
2019-04-29T05:06:28.862Z,47.02
2019-04-29T05:08:58.197Z,46.85
2019-04-29T05:11:27.770Z,46.76
2019-04-29T05:13:57.620Z,46.76
2019-04-29T05:16:27.352Z,47.01
2019-04-29T05:18:57.102Z,46.58
2019-04-29T05:21:26.841Z,46.75
2019-04-29T05:23:56.144Z,46.64
2019-04-29T05:26:25.521Z,46.29
2019-04-29T05:28:55.141Z,46.08
2019-04-29T05:31:24.874Z,46.05
2019-04-29T05:33:54.593Z,45.85
2019-04-29T05:36:25.763Z,45.97
2019-04-29T05:38:56.941Z,45.85
2019-04-29T05:41:30.167Z,45.79
2019-04-29T05:44:05.672Z,45.84
2019-04-29T05:46:37.181Z,45.53
2019-04-29T05:49:09.099Z,45.52
2019-04-29T05:51:40.534Z,45.58
2019-04-29T05:54:26.837Z,45.37
2019-04-29T05:56:55.365Z,45.30
2019-04-29T05:59:25.467Z,45.40
2019-04-29T06:01:55.328Z,45.29
2019-04-29T06:04:28.430Z,45.24
2019-04-29T06:06:56.633Z,45.23
2019-04-29T06:09:26.535Z,45.27
2019-04-29T06:11:55.927Z,45.44
2019-04-29T06:14:25.196Z,45.54
2019-04-29T06:16:57.504Z,45.70
2019-04-29T06:19:26.036Z,45.65
2019-04-29T06:21:55.579Z,45.33
2019-04-29T06:24:25.023Z,45.47
2019-04-29T06:26:54.373Z,45.45
2019-04-29T06:29:23.756Z,45.68
2019-04-29T06:31:53.284Z,45.67
2019-04-29T06:34:23.192Z,45.35
2019-04-29T06:36:52.935Z,44.98
2019-04-29T06:39:22.396Z,44.93
2019-04-29T06:41:51.803Z,45.34
2019-04-29T06:44:21.585Z,45.56
2019-04-29T06:46:54.605Z,45.30
2019-04-29T06:49:22.887Z,45.23
2019-04-29T06:51:52.813Z,45.57
2019-04-29T06:54:22.695Z,45.44
2019-04-29T06:56:52.584Z,45.39
2019-04-29T06:59:22.199Z,44.98
2019-04-29T07:01:52.067Z,44.89
2019-04-29T07:04:21.577Z,44.73
2019-04-29T07:06:57.735Z,44.87
2019-04-29T07:09:23.181Z,44.85
2019-04-29T07:11:52.874Z,44.50
2019-04-29T07:14:22.880Z,44.39
2019-04-29T07:16:52.567Z,43.78
2019-04-29T07:19:26.703Z,43.91
2019-04-29T07:21:56.512Z,43.97
2019-04-29T07:24:25.942Z,43.58
2019-04-29T07:26:57.763Z,43.58
2019-04-29T07:29:30.876Z,43.60
2019-04-29T07:32:00.505Z,43.47
2019-04-29T07:35:09.809Z,43.40
2019-04-29T07:37:38.939Z,43.30
2019-04-29T07:40:09.471Z,43.29
2019-04-29T07:42:39.326Z,43.08
2019-04-29T07:45:28.135Z,43.30
2019-04-29T07:48:01.830Z,43.62
2019-04-29T07:50:30.424Z,43.62
2019-04-29T07:53:00.496Z,43.29
2019-04-29T07:55:31.381Z,42.94
2019-04-29T07:58:02.424Z,42.67
2019-04-29T08:00:35.028Z,42.27
2019-04-29T08:03:06.555Z,42.52
2019-04-29T08:05:36.400Z,42.56
2019-04-29T08:08:06.648Z,42.75
2019-04-29T08:10:36.530Z,42.68
2019-04-29T08:13:06.676Z,42.68
2019-04-29T08:15:41.073Z,42.56
2019-04-29T08:18:11.347Z,42.31
2019-04-29T08:20:41.471Z,42.42
2019-04-29T08:23:11.797Z,41.83
2019-04-29T08:25:41.332Z,41.77
2019-04-29T08:28:11.359Z,41.75
2019-04-29T08:30:41.762Z,41.52
2019-04-29T08:33:13.278Z,41.24
2019-04-29T08:35:43.221Z,41.10
2019-04-29T08:38:13.259Z,41.01
2019-04-29T08:40:45.083Z,40.65
2019-04-29T08:43:20.581Z,40.37
2019-04-29T08:45:49.943Z,40.02
2019-04-29T08:48:19.755Z,39.68
2019-04-29T08:50:49.811Z,39.38
2019-04-29T08:53:19.995Z,38.83
2019-04-29T08:55:49.931Z,38.56
2019-04-29T08:58:20.220Z,37.96
2019-04-29T09:00:51.353Z,36.69
2019-04-29T09:03:24.308Z,35.56
2019-04-29T09:06:05.166Z,34.61
2019-04-29T09:08:28.788Z,33.16
2019-04-29T09:10:57.998Z,31.53
2019-04-29T09:13:28.958Z,30.21
2019-04-29T09:15:59.580Z,29.73
2019-04-29T09:18:29.800Z,29.14
2019-04-29T09:21:00.184Z,28.60
2019-04-29T09:23:34.512Z,27.64
2019-04-29T09:26:18.776Z,27.33
2019-04-29T09:28:49.934Z,26.81
2019-04-29T09:31:20.357Z,26.14
2019-04-29T09:33:55.293Z,25.91
2019-04-29T09:36:23.011Z,25.66
2019-04-29T09:38:53.768Z,25.63
2019-04-29T09:41:35.019Z,24.79
2019-04-29T09:44:08.542Z,24.72
2019-04-29T09:46:38.915Z,24.96
2019-04-29T09:49:09.880Z,23.97
2019-04-29T09:51:40.127Z,23.87
2019-04-29T09:54:14.696Z,24.18
2019-04-29T09:56:42.929Z,23.41
2019-04-29T09:59:24.092Z,22.36
2019-04-29T10:01:59.160Z,22.71
2019-04-29T10:04:33.490Z,22.15
2019-04-29T10:07:04.713Z,22.81
2019-04-29T10:09:34.994Z,22.23
2019-04-29T10:12:05.344Z,21.91
2019-04-29T10:14:35.450Z,21.20
2019-04-29T10:17:25.465Z,21.36
2019-04-29T10:19:57.433Z,20.95
2019-04-29T10:22:27.031Z,20.74
2019-04-29T10:24:57.673Z,20.32
2019-04-29T10:27:27.946Z,20.23
2019-04-29T10:29:58.549Z,20.41
2019-04-29T10:32:29.119Z,20.49
2019-04-29T10:35:03.678Z,20.00
2019-04-29T10:37:32.667Z,19.66
2019-04-29T10:40:14.609Z,20.20
2019-04-29T10:42:46.420Z,19.32
2019-04-29T10:45:19.727Z,18.88
2019-04-29T10:47:54.462Z,18.98
2019-04-29T10:50:29.119Z,18.21
2019-04-29T10:52:59.254Z,18.29
2019-04-29T10:55:31.627Z,17.46
2019-04-29T10:58:01.321Z,17.42
2019-04-29T11:01:01.796Z,17.22
2019-04-29T11:03:32.007Z,16.71
2019-04-29T11:06:02.274Z,16.62
2019-04-29T11:08:38.298Z,16.50
2019-04-29T11:11:22.101Z,16.50
2019-04-29T11:13:48.019Z,15.48
2019-04-29T11:16:15.666Z,15.94
2019-04-29T11:18:45.833Z,15.58
2019-04-29T11:21:16.040Z,15.78
2019-04-29T11:23:50.776Z,15.22
2019-04-29T11:26:33.169Z,15.27
2019-04-29T11:29:06.220Z,15.10
2019-04-29T11:31:37.240Z,14.55
2019-04-29T11:34:15.956Z,14.12
2019-04-29T11:36:46.296Z,13.01
2019-04-29T11:39:16.815Z,13.48
2019-04-29T11:41:49.939Z,13.46
2019-04-29T11:44:22.005Z,12.35
2019-04-29T11:46:51.337Z,12.59
2019-04-29T11:49:23.178Z,12.39
2019-04-29T11:52:08.553Z,11.88
2019-04-29T11:54:25.468Z,12.21
2019-04-29T11:56:56.214Z,11.40
2019-04-29T11:59:31.698Z,12.35
2019-04-29T12:02:23.467Z,12.44
2019-04-29T12:04:55.584Z,11.33
2019-04-29T12:07:31.708Z,12.10
2019-04-29T12:10:02.170Z,11.59
2019-04-29T12:12:30.008Z,12.33
2019-04-29T12:15:13.768Z,12.79
2019-04-29T12:17:45.184Z,12.17
2019-04-29T12:20:26.162Z,12.75
2019-04-29T12:22:56.614Z,12.81
2019-04-29T12:25:28.982Z,12.73
2019-04-29T12:28:01.649Z,13.08
2019-04-29T12:30:34.791Z,12.15
2019-04-29T12:33:10.072Z,12.41
2019-04-29T12:35:51.590Z,12.57
2019-04-29T12:38:19.360Z,12.67
2019-04-29T12:41:20.232Z,13.29
2019-04-29T12:43:54.011Z,12.36
2019-04-29T12:46:26.402Z,12.56
2019-04-29T12:48:56.967Z,12.56
2019-04-29T12:51:27.360Z,12.32
2019-04-29T12:53:57.835Z,12.23
2019-04-29T12:56:29.750Z,12.62
2019-04-29T12:59:01.465Z,12.18
2019-04-29T13:01:50.852Z,11.86
2019-04-29T13:04:10.724Z,11.76
2019-04-29T13:06:57.294Z,11.73
2019-04-29T13:09:45.377Z,11.44
2019-04-29T13:12:19.313Z,11.06
2019-04-29T13:15:02.650Z,10.08
2019-04-29T13:17:26.544Z,10.34
2019-04-29T13:20:02.092Z,10.24
2019-04-29T13:22:31.937Z,9.53
2019-04-29T13:25:02.250Z,9.45
2019-04-29T13:27:32.362Z,9.66
2019-04-29T13:30:06.651Z,10.05
2019-04-29T13:32:35.669Z,10.35
2019-04-29T13:35:10.898Z,11.09
2019-04-29T13:37:41.368Z,12.04
2019-04-29T13:40:11.518Z,12.63
2019-04-29T13:42:48.655Z,12.79
2019-04-29T13:45:14.320Z,12.47
2019-04-29T13:47:50.472Z,12.20
2019-04-29T13:50:37.942Z,12.58
2019-04-29T13:52:55.138Z,13.37
2019-04-29T13:55:47.152Z,13.89
2019-04-29T13:57:57.695Z,13.86
2019-04-29T14:00:27.500Z,14.66
2019-04-29T14:03:02.027Z,15.37
2019-04-29T14:05:36.684Z,15.27
2019-04-29T14:08:04.779Z,15.09
2019-04-29T14:10:35.038Z,15.45
2019-04-29T14:13:11.927Z,15.06
2019-04-29T14:15:40.340Z,15.16
2019-04-29T14:18:11.806Z,15.65
2019-04-29T14:20:41.404Z,15.97
2019-04-29T14:23:11.985Z,16.07
2019-04-29T14:25:42.102Z,16.36
2019-04-29T14:28:12.985Z,16.16
2019-04-29T14:30:47.639Z,16.44
2019-04-29T14:33:19.115Z,16.57
2019-04-29T14:35:51.300Z,16.36
2019-04-29T14:38:24.287Z,16.42
2019-04-29T14:40:53.842Z,16.09
2019-04-29T14:43:41.960Z,16.22
2019-04-29T14:46:25.542Z,16.18
2019-04-29T14:49:05.804Z,16.72
2019-04-29T14:51:36.902Z,16.72
2019-04-29T14:54:07.553Z,16.81
2019-04-29T14:56:38.109Z,16.84
2019-04-29T14:59:08.636Z,17.18
2019-04-29T15:01:43.440Z,16.89
2019-04-29T15:04:19.183Z,16.89
2019-04-29T15:06:47.360Z,17.32
2019-04-29T15:09:19.929Z,17.35
2019-04-29T15:12:09.459Z,17.18
2019-04-29T15:14:54.603Z,16.78
2019-04-29T15:17:40.414Z,17.91
2019-04-29T15:20:12.841Z,18.10
2019-04-29T15:22:43.114Z,17.93
2019-04-29T15:25:16.815Z,18.41
2019-04-29T15:27:45.620Z,18.43
2019-04-29T15:30:16.111Z,18.72
2019-04-29T15:32:46.272Z,18.55
2019-04-29T15:35:19.869Z,18.43
2019-04-29T15:37:48.814Z,18.25
2019-04-29T15:40:20.753Z,18.50
2019-04-29T15:42:53.537Z,19.02
2019-04-29T15:45:28.027Z,18.96
2019-04-29T15:47:57.435Z,19.21
2019-04-29T15:50:27.701Z,19.45
2019-04-29T15:52:58.777Z,19.99
2019-04-29T15:55:29.679Z,19.58
2019-04-29T15:58:00.191Z,19.48
2019-04-29T16:00:36.544Z,19.40
2019-04-29T16:03:02.880Z,19.66
2019-04-29T16:05:34.884Z,19.43
2019-04-29T16:08:22.821Z,19.31
2019-04-29T16:11:01.117Z,19.60
2019-04-29T16:13:31.694Z,20.10
2019-04-29T16:16:01.819Z,20.49
2019-04-29T16:18:32.123Z,20.47
2019-04-29T16:21:02.502Z,20.56
2019-04-29T16:23:32.715Z,20.72
2019-04-29T16:26:04.967Z,20.44
2019-04-29T16:28:39.964Z,20.29
2019-04-29T16:31:12.241Z,20.26
2019-04-29T16:33:39.491Z,20.52
2019-04-29T16:36:09.837Z,20.21
2019-04-29T16:38:40.222Z,20.24
2019-04-29T16:41:27.527Z,20.26
2019-04-29T16:43:58.486Z,20.32
2019-04-29T16:46:37.331Z,20.64
2019-04-29T16:49:02.295Z,20.65
2019-04-29T16:51:32.916Z,21.03
2019-04-29T16:54:03.531Z,21.13
2019-04-29T16:56:34.077Z,21.17
2019-04-29T16:59:09.263Z,20.90
2019-04-29T17:01:35.762Z,20.84
2019-04-29T17:04:05.840Z,21.17
2019-04-29T17:06:40.946Z,21.20
2019-04-29T17:09:09.722Z,21.34
2019-04-29T17:11:44.416Z,21.49
2019-04-29T17:14:14.945Z,21.72
2019-04-29T17:16:45.302Z,21.95
2019-04-29T17:19:15.105Z,22.19
2019-04-29T17:21:45.138Z,22.49
2019-04-29T17:24:15.318Z,22.59
2019-04-29T17:26:54.989Z,22.98
2019-04-29T17:29:39.088Z,22.87
2019-04-29T17:32:08.311Z,23.23
2019-04-29T17:34:58.087Z,23.57
2019-04-29T17:37:12.011Z,23.89
2019-04-29T17:39:42.380Z,24.17
2019-04-29T17:42:13.171Z,24.47
2019-04-29T17:44:45.001Z,24.79
2019-04-29T17:47:22.448Z,25.09
2019-04-29T17:49:55.207Z,25.40
2019-04-29T17:52:27.216Z,25.66
2019-04-29T17:55:12.384Z,26.04
2019-04-29T17:57:54.476Z,26.34
2019-04-29T18:00:41.387Z,26.74
2019-04-29T18:03:22.466Z,26.94
2019-04-29T18:05:57.599Z,26.26
2019-04-29T18:08:31.518Z,26.36
2019-04-29T18:11:06.567Z,26.23
2019-04-29T18:13:35.640Z,26.26
2019-04-29T18:16:17.430Z,26.16
2019-04-29T18:18:46.675Z,25.89
2019-04-29T18:21:31.704Z,25.79
2019-04-29T18:24:05.008Z,26.01
2019-04-29T18:26:44.243Z,25.97
2019-04-29T18:29:16.161Z,25.95
2019-04-29T18:31:47.141Z,26.06
2019-04-29T18:34:17.677Z,25.95
2019-04-29T18:36:48.171Z,25.99
2019-04-29T18:39:24.210Z,26.08
2019-04-29T18:41:52.378Z,25.85
2019-04-29T18:44:22.307Z,26.08
2019-04-29T18:46:53.778Z,26.01
2019-04-29T18:49:25.825Z,26.02
2019-04-29T18:51:57.875Z,26.16
2019-04-29T18:54:27.754Z,26.04
2019-04-29T18:56:58.342Z,26.11
2019-04-29T18:59:33.501Z,26.08
2019-04-29T19:02:00.931Z,26.16
2019-04-29T19:04:39.402Z,26.32
2019-04-29T19:07:09.175Z,26.17
2019-04-29T19:09:39.749Z,26.35
2019-04-29T19:12:09.110Z,26.48
2019-04-29T19:14:38.751Z,26.60
2019-04-29T19:17:08.696Z,26.92
2019-04-29T19:19:39.454Z,27.04
2019-04-29T19:22:09.661Z,27.18
2019-04-29T19:24:39.423Z,27.42
2019-04-29T19:27:10.022Z,27.51
2019-04-29T19:29:43.341Z,27.53
2019-04-29T19:32:11.247Z,27.33
2019-04-29T19:34:43.293Z,27.17
2019-04-29T19:37:11.814Z,27.07
2019-04-29T19:39:41.525Z,27.05
2019-04-29T19:42:10.935Z,27.14
2019-04-29T19:44:40.285Z,27.08
2019-04-29T19:47:10.823Z,26.92
2019-04-29T19:49:44.664Z,26.97
2019-04-29T19:52:12.279Z,26.96
2019-04-29T19:54:42.189Z,26.80
2019-04-29T19:57:11.680Z,26.54
2019-04-29T19:59:51.983Z,26.33
2019-04-29T20:02:19.807Z,26.32
2019-04-29T20:05:00.870Z,26.31
2019-04-29T20:07:31.679Z,26.28
2019-04-29T20:10:05.326Z,26.39
2019-04-29T20:12:33.308Z,26.46
2019-04-29T20:15:07.719Z,26.61
2019-04-29T20:17:47.103Z,26.52
2019-04-29T20:20:17.842Z,26.52
2019-04-29T20:22:51.051Z,26.53
2019-04-29T20:25:29.154Z,26.40
2019-04-29T20:28:02.664Z,26.39
2019-04-29T20:30:22.176Z,26.31
2019-04-29T20:32:51.679Z,26.62
2019-04-29T20:35:21.457Z,26.58
2019-04-29T20:37:55.731Z,26.39
2019-04-29T20:40:22.389Z,26.53
2019-04-29T20:42:52.086Z,26.53
2019-04-29T20:45:25.470Z,26.64
2019-04-29T20:47:52.446Z,26.78
2019-04-29T20:50:22.086Z,26.95
2019-04-29T20:52:59.093Z,27.12
2019-04-29T20:55:24.236Z,27.32
2019-04-29T20:57:54.094Z,27.51
2019-04-29T21:00:24.952Z,27.74
2019-04-29T21:02:54.584Z,27.93
2019-04-29T21:05:26.882Z,28.01
2019-04-29T21:08:03.038Z,28.30
2019-04-29T21:10:27.402Z,28.56
2019-04-29T21:12:59.508Z,28.89
2019-04-29T21:15:36.227Z,29.07
2019-04-29T21:18:06.050Z,29.25
2019-04-29T21:20:35.363Z,29.73
2019-04-29T21:23:05.557Z,30.00
2019-04-29T21:25:35.645Z,30.22
2019-04-29T21:28:06.028Z,30.33
2019-04-29T21:30:42.345Z,30.29
2019-04-29T21:33:08.218Z,30.46
2019-04-29T21:35:41.763Z,30.55
2019-04-29T21:38:17.859Z,30.61
2019-04-29T21:40:47.779Z,30.64
2019-04-29T21:43:21.498Z,30.75
2019-04-29T21:45:50.943Z,30.57
2019-04-29T21:48:25.656Z,30.61
2019-04-29T21:50:51.203Z,30.63
2019-04-29T21:53:20.435Z,30.72
2019-04-29T21:55:49.830Z,30.64
2019-04-29T21:58:19.248Z,30.70
2019-04-29T22:00:48.809Z,30.71
2019-04-29T22:03:19.868Z,30.51
2019-04-29T22:05:53.558Z,30.59
2019-04-29T22:08:25.089Z,30.63
2019-04-29T22:10:51.344Z,30.68
2019-04-29T22:13:20.630Z,30.63
2019-04-29T22:15:49.785Z,30.75
2019-04-29T22:18:19.071Z,30.86
2019-04-29T22:20:48.333Z,30.91
2019-04-29T22:23:17.760Z,30.96
2019-04-29T22:25:47.261Z,30.96
2019-04-29T22:28:19.802Z,30.86
2019-04-29T22:30:49.808Z,30.91
2019-04-29T22:33:18.884Z,30.98
2019-04-29T22:35:48.163Z,30.79
2019-04-29T22:38:18.714Z,30.90
2019-04-29T22:40:49.170Z,31.08
2019-04-29T22:43:20.068Z,31.08
2019-04-29T22:45:49.318Z,31.07
2019-04-29T22:48:19.850Z,31.25
2019-04-29T22:50:49.100Z,31.24
2019-04-29T22:53:18.342Z,31.27
2019-04-29T22:55:47.535Z,31.37
2019-04-29T22:58:16.697Z,31.42
2019-04-29T23:00:45.911Z,31.45
2019-04-29T23:03:15.129Z,31.58
2019-04-29T23:05:46.127Z,31.60
2019-04-29T23:08:15.493Z,31.66
2019-04-29T23:10:45.622Z,31.73
2019-04-29T23:13:15.062Z,31.69
2019-04-29T23:15:45.508Z,31.62
2019-04-29T23:18:24.260Z,31.52
2019-04-29T23:20:50.246Z,31.48
2019-04-29T23:23:21.091Z,31.33
2019-04-29T23:25:51.894Z,31.28
2019-04-29T23:28:22.545Z,31.23
2019-04-29T23:30:53.444Z,31.24
2019-04-29T23:33:24.054Z,31.36
2019-04-29T23:35:55.956Z,31.35
2019-04-29T23:38:25.568Z,31.33
2019-04-29T23:40:56.426Z,31.33
2019-04-29T23:43:28.417Z,31.46
2019-04-29T23:46:00.375Z,31.48
2019-04-29T23:48:38.891Z,31.55
2019-04-29T23:50:59.448Z,31.51
2019-04-29T23:53:28.732Z,31.61
2019-04-29T23:56:00.261Z,31.62
2019-04-29T23:58:37.236Z,31.65
